createdAt,value
2023-01-03T00:01:46.768Z,99195.66
2023-01-03T00:04:14.622Z,99201.09
2023-01-03T00:06:45.517Z,99201.31
2023-01-03T00:09:16.942Z,99205.00
2023-01-03T00:12:05.648Z,99207.66
2023-01-03T00:14:38.282Z,99197.72
2023-01-03T00:17:06.579Z,99210.19
2023-01-03T00:19:40.692Z,99212.09
2023-01-03T00:22:08.734Z,99216.41
2023-01-03T00:24:36.140Z,99222.50
2023-01-03T00:27:03.430Z,99225.94
2023-01-03T00:29:30.706Z,99218.25
2023-01-03T00:31:58.104Z,99233.25
2023-01-03T00:34:25.563Z,99224.47
2023-01-03T00:36:52.570Z,99229.81
2023-01-03T00:39:19.924Z,99233.25
2023-01-03T00:41:46.911Z,99232.44
2023-01-03T00:44:14.493Z,99231.66
2023-01-03T00:46:41.859Z,99233.25
2023-01-03T00:49:10.231Z,99241.78
2023-01-03T00:51:39.037Z,99232.19
2023-01-03T00:54:07.933Z,99247.28
2023-01-03T00:56:37.675Z,99240.31
2023-01-03T00:59:06.139Z,99243.97
2023-01-03T01:01:45.880Z,99249.28
2023-01-03T01:04:27.015Z,99243.06
2023-01-03T01:06:56.982Z,99239.66
2023-01-03T01:09:34.440Z,99248.53
2023-01-03T01:12:02.027Z,99251.34
2023-01-03T01:14:33.456Z,99249.75
2023-01-03T01:17:06.519Z,99257.50
2023-01-03T01:19:36.876Z,99259.97
2023-01-03T01:22:04.229Z,99262.38
2023-01-03T01:24:31.438Z,99264.28
2023-01-03T01:26:58.435Z,99260.78
2023-01-03T01:29:25.996Z,99261.00
2023-01-03T01:31:52.967Z,99263.56
2023-01-03T01:34:20.199Z,99268.91
2023-01-03T01:36:48.235Z,99262.75
2023-01-03T01:39:23.739Z,99258.22
2023-01-03T01:42:19.289Z,99266.28
2023-01-03T01:44:56.169Z,99257.66
2023-01-03T01:47:26.039Z,99258.59
2023-01-03T01:50:02.423Z,99252.41
2023-01-03T01:52:32.678Z,99255.00
2023-01-03T01:55:03.037Z,99255.84
2023-01-03T01:57:30.739Z,99258.53
2023-01-03T01:59:58.366Z,99261.25
2023-01-03T02:02:25.533Z,99265.63
2023-01-03T02:04:55.859Z,99262.88
2023-01-03T02:07:23.601Z,99269.94
2023-01-03T02:09:54.773Z,99269.97
2023-01-03T02:12:57.970Z,99256.69
2023-01-03T02:15:31.747Z,99266.69
2023-01-03T02:18:13.977Z,99263.53
2023-01-03T02:21:22.202Z,99263.59
2023-01-03T02:24:12.705Z,99275.72
2023-01-03T02:26:52.907Z,99271.19
2023-01-03T02:29:34.242Z,99271.88
2023-01-03T02:32:04.673Z,99265.00
2023-01-03T02:34:56.839Z,99271.22
2023-01-03T02:37:41.961Z,99275.69
2023-01-03T02:40:17.863Z,99282.78
2023-01-03T02:43:02.571Z,99281.16
2023-01-03T02:45:35.055Z,99281.19
2023-01-03T02:48:10.741Z,99288.03
2023-01-03T02:50:48.828Z,99289.59
2023-01-03T02:53:29.380Z,99276.38
2023-01-03T02:56:01.522Z,99293.09
2023-01-03T02:58:32.085Z,99296.63
2023-01-03T03:01:02.088Z,99300.13
2023-01-03T03:03:35.848Z,99293.97
2023-01-03T03:06:21.544Z,99298.34
2023-01-03T03:08:49.444Z,99299.19
2023-01-03T03:11:35.012Z,99306.03
2023-01-03T03:14:12.076Z,99310.47
2023-01-03T03:16:48.880Z,99306.13
2023-01-03T03:19:39.374Z,99311.25
2023-01-03T03:23:01.888Z,99320.94
2023-01-03T03:26:02.903Z,99318.44
2023-01-03T03:28:36.021Z,99309.56
2023-01-03T03:31:09.324Z,99306.97
2023-01-03T03:33:44.535Z,99315.63
2023-01-03T03:36:37.963Z,99323.53
2023-01-03T03:39:27.366Z,99325.41
2023-01-03T03:42:15.483Z,99329.81
2023-01-03T03:45:01.823Z,99332.41
2023-01-03T03:47:43.455Z,99333.31
2023-01-03T03:50:19.147Z,99330.75
2023-01-03T03:52:50.029Z,99335.88
2023-01-03T03:55:22.576Z,99332.41
2023-01-03T03:58:01.205Z,99341.41
2023-01-03T04:00:33.402Z,99339.84
2023-01-03T04:03:02.615Z,99331.25
2023-01-03T04:05:34.872Z,99344.47
2023-01-03T04:08:02.130Z,99340.84
2023-01-03T04:10:35.591Z,99349.72
2023-01-03T04:13:04.876Z,99340.09
2023-01-03T04:15:31.792Z,99338.63
2023-01-03T04:18:01.982Z,99349.38
2023-01-03T04:20:29.632Z,99355.72
2023-01-03T04:22:57.307Z,99356.69
2023-01-03T04:25:24.652Z,99358.53
2023-01-03T04:27:51.924Z,99360.41
2023-01-03T04:30:18.904Z,99355.19
2023-01-03T04:32:46.139Z,99352.47
2023-01-03T04:35:13.009Z,99346.53
2023-01-03T04:37:40.240Z,99351.75
2023-01-03T04:40:07.642Z,99358.84
2023-01-03T04:42:53.612Z,99358.03
2023-01-03T04:45:20.472Z,99367.63
2023-01-03T04:47:47.662Z,99364.13
2023-01-03T04:50:14.552Z,99367.75
2023-01-03T04:52:41.727Z,99364.22
2023-01-03T04:55:08.808Z,99368.78
2023-01-03T04:57:36.692Z,99376.56
2023-01-03T05:00:04.654Z,99374.75
2023-01-03T05:02:31.949Z,99391.97
2023-01-03T05:04:58.972Z,99400.72
2023-01-03T05:07:29.485Z,99398.75
2023-01-03T05:09:56.666Z,99398.59
2023-01-03T05:12:24.117Z,99410.69
2023-01-03T05:14:51.005Z,99404.13
2023-01-03T05:17:20.385Z,99416.25
2023-01-03T05:20:07.168Z,99413.41
2023-01-03T05:22:53.108Z,99410.69
2023-01-03T05:25:38.808Z,99417.59
2023-01-03T05:28:07.103Z,99409.72
2023-01-03T05:30:36.601Z,99421.84
2023-01-03T05:33:03.851Z,99416.63
2023-01-03T05:35:30.752Z,99420.22
2023-01-03T05:37:57.944Z,99418.44
2023-01-03T05:40:24.849Z,99428.19
2023-01-03T05:42:52.034Z,99431.03
2023-01-03T05:45:19.629Z,99440.81
2023-01-03T05:47:46.798Z,99434.91
2023-01-03T05:50:13.637Z,99434.06
2023-01-03T05:52:40.747Z,99438.59
2023-01-03T05:55:08.029Z,99438.63
2023-01-03T05:57:35.754Z,99443.03
2023-01-03T06:00:04.410Z,99449.94
2023-01-03T06:02:31.644Z,99441.97
2023-01-03T06:04:58.627Z,99447.00
2023-01-03T06:07:25.943Z,99453.91
2023-01-03T06:09:52.782Z,99453.84
2023-01-03T06:12:19.892Z,99453.91
2023-01-03T06:14:46.784Z,99463.75
2023-01-03T06:17:32.738Z,99467.56
2023-01-03T06:20:00.155Z,99460.91
2023-01-03T06:22:27.320Z,99474.41
2023-01-03T06:24:54.217Z,99473.78
2023-01-03T06:27:21.365Z,99462.50
2023-01-03T06:29:48.331Z,99479.94
2023-01-03T06:32:15.523Z,99486.19
2023-01-03T06:34:42.499Z,99494.72
2023-01-03T06:37:09.740Z,99482.28
2023-01-03T06:39:36.969Z,99490.16
2023-01-03T06:42:24.350Z,99493.47
2023-01-03T06:45:10.104Z,99496.09
2023-01-03T06:47:56.424Z,99505.75
2023-01-03T06:50:41.884Z,99501.34
2023-01-03T06:53:22.303Z,99509.94
2023-01-03T06:55:56.325Z,99508.88
2023-01-03T06:58:24.320Z,99510.56
2023-01-03T07:00:51.287Z,99523.59
2023-01-03T07:03:18.525Z,99518.22
2023-01-03T07:05:45.378Z,99527.75
2023-01-03T07:08:12.901Z,99535.50
2023-01-03T07:10:40.956Z,99535.38
2023-01-03T07:13:26.731Z,99543.13
2023-01-03T07:15:54.117Z,99556.25
2023-01-03T07:18:21.785Z,99551.69
2023-01-03T07:20:48.911Z,99555.13
2023-01-03T07:23:16.111Z,99562.22
2023-01-03T07:25:43.249Z,99570.78
2023-01-03T07:28:12.151Z,99568.91
2023-01-03T07:30:46.413Z,99568.88
2023-01-03T07:33:16.238Z,99577.63
2023-01-03T07:35:43.280Z,99581.03
2023-01-03T07:38:12.679Z,99585.34
2023-01-03T07:40:39.921Z,99586.06
2023-01-03T07:43:27.415Z,99587.94
2023-01-03T07:45:54.589Z,99588.53
2023-01-03T07:48:21.847Z,99596.41
2023-01-03T07:50:48.727Z,99598.13
2023-01-03T07:53:18.925Z,99599.66
2023-01-03T07:55:45.863Z,99603.84
2023-01-03T07:58:13.480Z,99604.09
2023-01-03T08:00:41.127Z,99604.88
2023-01-03T08:03:11.492Z,99611.09
2023-01-03T08:05:39.214Z,99608.88
2023-01-03T08:08:06.648Z,99614.16
2023-01-03T08:10:52.094Z,99614.94
2023-01-03T08:13:19.466Z,99626.53
2023-01-03T08:15:48.798Z,99614.16
2023-01-03T08:18:20.388Z,99617.56
2023-01-03T08:20:48.122Z,99622.84
2023-01-03T08:23:15.584Z,99637.69
2023-01-03T08:25:42.468Z,99640.34
2023-01-03T08:28:11.347Z,99645.44
2023-01-03T08:30:43.174Z,99658.63
2023-01-03T08:33:13.709Z,99652.38
2023-01-03T08:35:45.853Z,99659.34
2023-01-03T08:38:18.610Z,99667.81
2023-01-03T08:40:46.867Z,99679.06
2023-01-03T08:43:15.939Z,99669.19
2023-01-03T08:45:43.153Z,99678.03
2023-01-03T08:48:11.616Z,99676.28
2023-01-03T08:50:39.124Z,99673.94
2023-01-03T08:53:06.530Z,99679.09
2023-01-03T08:55:34.307Z,99681.91
2023-01-03T08:58:01.704Z,99685.31
2023-01-03T09:00:29.109Z,99681.69
2023-01-03T09:03:02.698Z,99685.34
2023-01-03T09:05:30.227Z,99694.94
2023-01-03T09:07:58.348Z,99680.06
2023-01-03T09:10:26.085Z,99686.16
2023-01-03T09:12:53.363Z,99679.09
2023-01-03T09:15:21.180Z,99688.81
2023-01-03T09:17:49.494Z,99686.66
2023-01-03T09:20:18.533Z,99693.63
2023-01-03T09:22:47.760Z,99688.78
2023-01-03T09:25:15.846Z,99685.28
2023-01-03T09:27:47.692Z,99694.88
2023-01-03T09:30:16.688Z,99686.88
2023-01-03T09:32:43.767Z,99684.41
2023-01-03T09:35:11.561Z,99680.81
2023-01-03T09:37:41.707Z,99679.78
2023-01-03T09:40:13.058Z,99679.47
2023-01-03T09:43:09.587Z,99673.09
2023-01-03T09:45:39.810Z,99676.25
2023-01-03T09:48:07.251Z,99675.88
2023-01-03T09:50:57.229Z,99675.53
2023-01-03T09:53:56.919Z,99673.25
2023-01-03T09:56:42.709Z,99666.00
2023-01-03T09:59:35.375Z,99666.72
2023-01-03T10:03:01.400Z,99671.47
2023-01-03T10:05:45.845Z,99668.28
2023-01-03T10:08:45.337Z,99675.22
2023-01-03T10:11:22.788Z,99672.50
2023-01-03T10:13:58.836Z,99670.81
2023-01-03T10:16:31.750Z,99675.94
2023-01-03T10:19:04.084Z,99678.81
2023-01-03T10:22:02.500Z,99673.84
2023-01-03T10:24:31.752Z,99662.84
2023-01-03T10:27:15.853Z,99671.00
2023-01-03T10:29:46.771Z,99673.22
2023-01-03T10:32:25.741Z,99677.19
2023-01-03T10:35:15.524Z,99678.22
2023-01-03T10:37:43.939Z,99677.91
2023-01-03T10:40:12.851Z,99687.41
2023-01-03T10:42:41.728Z,99672.38
2023-01-03T10:45:15.435Z,99689.25
2023-01-03T10:47:43.008Z,99684.09
2023-01-03T10:50:24.312Z,99687.84
2023-01-03T10:53:00.123Z,99671.84
2023-01-03T10:55:28.458Z,99686.31
2023-01-03T10:57:55.857Z,99694.56
2023-01-03T11:00:29.009Z,99683.88
2023-01-03T11:03:21.971Z,99684.06
2023-01-03T11:06:02.169Z,99690.50
2023-01-03T11:08:49.545Z,99684.00
2023-01-03T11:11:34.784Z,99679.63
2023-01-03T11:14:26.351Z,99677.88
2023-01-03T11:17:01.527Z,99684.00
2023-01-03T11:19:31.061Z,99681.44
2023-01-03T11:22:14.610Z,99680.50
2023-01-03T11:24:50.776Z,99675.13
2023-01-03T11:27:26.843Z,99682.09
2023-01-03T11:30:03.082Z,99675.78
2023-01-03T11:32:40.038Z,99675.31
2023-01-03T11:35:49.438Z,99668.13
2023-01-03T11:38:19.272Z,99670.03
2023-01-03T11:41:17.379Z,99675.44
2023-01-03T11:43:56.733Z,99678.72
2023-01-03T11:46:40.888Z,99677.91
2023-01-03T11:49:26.405Z,99695.25
2023-01-03T11:52:07.810Z,99685.50
2023-01-03T11:54:52.990Z,99684.66
2023-01-03T11:57:46.411Z,99700.66
2023-01-03T12:00:22.110Z,99707.00
2023-01-03T12:02:55.116Z,99704.47
2023-01-03T12:05:51.526Z,99693.38
2023-01-03T12:08:37.091Z,99683.00
2023-01-03T12:11:17.247Z,99677.78
2023-01-03T12:13:47.560Z,99682.88
2023-01-03T12:16:26.255Z,99677.63
2023-01-03T12:19:11.692Z,99676.47
2023-01-03T12:21:44.680Z,99673.44
2023-01-03T12:24:32.371Z,99664.13
2023-01-03T12:27:09.018Z,99658.47
2023-01-03T12:29:54.635Z,99658.59
2023-01-03T12:32:44.989Z,99656.47
2023-01-03T12:35:28.228Z,99652.16
2023-01-03T12:37:57.600Z,99655.66
2023-01-03T12:40:56.567Z,99651.38
2023-01-03T12:43:47.286Z,99662.91
2023-01-03T12:46:23.109Z,99657.41
2023-01-03T12:49:10.185Z,99659.97
2023-01-03T12:51:37.638Z,99667.38
2023-01-03T12:54:33.382Z,99658.25
2023-01-03T12:57:27.304Z,99671.78
2023-01-03T13:00:20.168Z,99673.47
2023-01-03T13:02:59.220Z,99669.13
2023-01-03T13:05:43.499Z,99675.16
2023-01-03T13:08:26.713Z,99671.38
2023-01-03T13:10:56.980Z,99674.19
2023-01-03T13:13:24.366Z,99671.84
2023-01-03T13:15:53.234Z,99668.75
2023-01-03T13:18:23.240Z,99666.81
2023-01-03T13:20:52.138Z,99665.56
2023-01-03T13:23:54.551Z,99671.88
2023-01-03T13:26:30.346Z,99666.00
2023-01-03T13:29:34.886Z,99672.75
2023-01-03T13:32:04.291Z,99669.53
2023-01-03T13:34:34.034Z,99670.84
2023-01-03T13:37:03.958Z,99670.78
2023-01-03T13:39:52.198Z,99668.06
2023-01-03T13:42:30.406Z,99674.75
2023-01-03T13:45:15.672Z,99660.78
2023-01-03T13:47:48.641Z,99670.19
2023-01-03T13:50:27.160Z,99660.16
2023-01-03T13:53:31.090Z,99673.13
2023-01-03T13:56:19.259Z,99672.69
2023-01-03T13:58:57.605Z,99681.00
2023-01-03T14:01:40.091Z,99677.66
2023-01-03T14:04:15.280Z,99678.66
2023-01-03T14:06:45.504Z,99683.09
2023-01-03T14:09:56.672Z,99685.97
2023-01-03T14:12:23.801Z,99685.91
2023-01-03T14:14:55.390Z,99696.63
2023-01-03T14:17:30.394Z,99683.56
2023-01-03T14:20:02.005Z,99686.34
2023-01-03T14:22:51.103Z,99683.84
2023-01-03T14:25:37.930Z,99697.13
2023-01-03T14:28:27.243Z,99701.59
2023-01-03T14:30:58.213Z,99705.91
2023-01-03T14:33:30.342Z,99708.47
2023-01-03T14:36:16.086Z,99710.28
2023-01-03T14:38:52.760Z,99710.31
2023-01-03T14:41:39.418Z,99711.34
2023-01-03T14:44:15.320Z,99713.94
2023-01-03T14:46:53.407Z,99719.25
2023-01-03T14:49:22.874Z,99730.69
2023-01-03T14:51:50.045Z,99725.44
2023-01-03T14:54:20.335Z,99717.53
2023-01-03T14:56:48.608Z,99722.78
2023-01-03T14:59:19.237Z,99719.38
2023-01-03T15:01:46.778Z,99723.03
2023-01-03T15:04:17.742Z,99725.69
2023-01-03T15:07:13.127Z,99727.59
2023-01-03T15:09:40.939Z,99734.75
2023-01-03T15:12:08.076Z,99734.81
2023-01-03T15:14:39.316Z,99734.06
2023-01-03T15:17:09.836Z,99735.09
2023-01-03T15:19:41.138Z,99735.09
2023-01-03T15:22:12.101Z,99737.84
2023-01-03T15:24:43.457Z,99748.41
2023-01-03T15:27:38.376Z,99741.59
2023-01-03T15:30:15.258Z,99746.13
2023-01-03T15:32:53.744Z,99752.47
2023-01-03T15:35:42.117Z,99757.16
2023-01-03T15:38:19.895Z,99741.03
2023-01-03T15:40:50.119Z,99751.91
2023-01-03T15:43:19.623Z,99755.59
2023-01-03T15:46:10.184Z,99751.38
2023-01-03T15:48:37.439Z,99760.28
2023-01-03T15:51:05.861Z,99760.38
2023-01-03T15:53:44.362Z,99756.22
2023-01-03T15:56:26.984Z,99751.03
2023-01-03T15:58:56.395Z,99751.16
2023-01-03T16:01:25.045Z,99760.94
2023-01-03T16:03:53.187Z,99757.66
2023-01-03T16:06:20.579Z,99762.09
2023-01-03T16:08:47.803Z,99764.78
2023-01-03T16:11:31.486Z,99763.13
2023-01-03T16:14:05.033Z,99758.00
2023-01-03T16:16:38.171Z,99764.25
2023-01-03T16:19:06.414Z,99757.41
2023-01-03T16:21:34.386Z,99762.88
2023-01-03T16:24:02.870Z,99772.63
2023-01-03T16:26:30.182Z,99782.44
2023-01-03T16:28:57.116Z,99782.59
2023-01-03T16:31:30.822Z,99779.31
2023-01-03T16:33:58.159Z,99786.34
2023-01-03T16:36:38.116Z,99793.44
2023-01-03T16:39:23.858Z,99790.06
2023-01-03T16:42:12.303Z,99797.03
2023-01-03T16:44:44.424Z,99800.50
2023-01-03T16:47:22.777Z,99802.25
2023-01-03T16:50:01.310Z,99805.72
2023-01-03T16:52:37.691Z,99814.44
2023-01-03T16:55:12.661Z,99818.84
2023-01-03T16:57:39.846Z,99815.31
2023-01-03T17:00:18.333Z,99817.09
2023-01-03T17:02:46.203Z,99817.06
2023-01-03T17:05:14.733Z,99817.06
2023-01-03T17:07:45.250Z,99810.88
2023-01-03T17:10:34.920Z,99813.44
2023-01-03T17:13:10.147Z,99819.50
2023-01-03T17:15:40.542Z,99819.44
2023-01-03T17:18:18.739Z,99822.00
2023-01-03T17:20:46.035Z,99824.63
2023-01-03T17:23:13.398Z,99819.19
2023-01-03T17:25:41.497Z,99830.41
2023-01-03T17:28:10.580Z,99830.34
2023-01-03T17:30:38.204Z,99828.47
2023-01-03T17:33:05.636Z,99834.47
2023-01-03T17:35:33.722Z,99837.09
2023-01-03T17:40:49.283Z,99834.47
2023-01-03T17:43:21.331Z,99833.63
2023-01-03T17:46:08.161Z,99837.09
2023-01-03T17:48:54.268Z,99837.97
2023-01-03T17:51:21.674Z,99837.00
2023-01-03T17:53:50.537Z,99833.47
2023-01-03T17:56:19.627Z,99840.50
2023-01-03T17:58:55.630Z,99840.59
2023-01-03T18:01:23.525Z,99844.97
2023-01-03T18:03:50.931Z,99840.50
2023-01-03T18:06:22.124Z,99843.97
2023-01-03T18:08:50.488Z,99844.78
2023-01-03T18:11:24.943Z,99843.94
2023-01-03T18:13:52.569Z,99845.63
2023-01-03T18:16:21.716Z,99849.13
2023-01-03T18:18:49.718Z,99850.91
2023-01-03T18:21:27.704Z,99841.28
2023-01-03T18:24:08.303Z,99852.75
2023-01-03T18:26:38.555Z,99848.34
2023-01-03T18:29:07.568Z,99836.09
2023-01-03T18:31:34.716Z,99845.75
2023-01-03T18:34:04.923Z,99844.88
2023-01-03T18:36:43.286Z,99849.28
2023-01-03T18:39:35.501Z,99846.59
2023-01-03T18:42:20.935Z,99843.97
2023-01-03T18:44:48.213Z,99847.50
2023-01-03T18:47:15.881Z,99856.22
2023-01-03T18:49:43.323Z,99850.97
2023-01-03T18:52:24.930Z,99854.47
2023-01-03T18:54:53.478Z,99858.91
2023-01-03T18:57:20.472Z,99859.72
2023-01-03T18:59:49.460Z,99851.00
2023-01-03T19:02:18.916Z,99851.91
2023-01-03T19:04:51.369Z,99851.91
2023-01-03T19:07:24.801Z,99856.34
2023-01-03T19:09:52.182Z,99848.53
2023-01-03T19:12:20.378Z,99851.16
2023-01-03T19:14:47.575Z,99853.88
2023-01-03T19:17:19.069Z,99860.06
2023-01-03T19:19:46.477Z,99854.91
2023-01-03T19:22:33.044Z,99863.78
2023-01-03T19:25:05.054Z,99863.00
2023-01-03T19:27:45.366Z,99865.75
2023-01-03T19:30:40.718Z,99870.13
2023-01-03T19:33:13.351Z,99864.91
2023-01-03T19:35:41.104Z,99873.69
2023-01-03T19:38:09.605Z,99868.44
2023-01-03T19:40:40.307Z,99874.63
2023-01-03T19:43:07.423Z,99865.88
2023-01-03T19:45:40.717Z,99874.69
2023-01-03T19:48:37.186Z,99873.06
2023-01-03T19:51:05.490Z,99873.06
2023-01-03T19:53:32.378Z,99863.44
2023-01-03T19:55:59.563Z,99873.94
2023-01-03T19:58:38.466Z,99870.53
2023-01-03T20:01:05.544Z,99880.19
2023-01-03T20:03:39.362Z,99880.16
2023-01-03T20:06:11.507Z,99875.00
2023-01-03T20:08:38.490Z,99875.06
2023-01-03T20:11:11.036Z,99868.06
2023-01-03T20:13:37.986Z,99870.69
2023-01-03T20:16:05.579Z,99870.69
2023-01-03T20:18:36.539Z,99871.56
2023-01-03T20:21:09.978Z,99869.84
2023-01-03T20:23:41.383Z,99872.47
2023-01-03T20:26:32.682Z,99883.03
2023-01-03T20:29:00.586Z,99880.53
2023-01-03T20:31:28.615Z,99888.50
2023-01-03T20:33:55.714Z,99884.22
2023-01-03T20:36:32.465Z,99878.16
2023-01-03T20:38:59.508Z,99881.75
2023-01-03T20:41:36.550Z,99883.66
2023-01-03T20:44:05.251Z,99888.09
2023-01-03T20:46:32.496Z,99889.06
2023-01-03T20:49:02.466Z,99888.28
2023-01-03T20:51:29.924Z,99898.88
2023-01-03T20:53:56.820Z,99893.69
2023-01-03T20:56:26.282Z,99899.03
2023-01-03T20:58:53.204Z,99895.72
2023-01-03T21:01:20.621Z,99898.31
2023-01-03T21:03:47.743Z,99905.31
2023-01-03T21:06:20.813Z,99900.19
2023-01-03T21:08:58.088Z,99900.19
2023-01-03T21:11:30.772Z,99906.31
2023-01-03T21:13:59.890Z,99908.97
2023-01-03T21:16:37.698Z,99904.66
2023-01-03T21:19:24.535Z,99904.69
2023-01-03T21:21:53.541Z,99900.31
2023-01-03T21:24:22.929Z,99908.22
2023-01-03T21:26:50.695Z,99902.13
2023-01-03T21:29:17.634Z,99903.06
2023-01-03T21:31:44.977Z,99915.31
2023-01-03T21:34:18.958Z,99911.00
2023-01-03T21:36:47.250Z,99918.88
2023-01-03T21:39:14.194Z,99918.00
2023-01-03T21:41:59.947Z,99915.44
2023-01-03T21:44:27.013Z,99914.59
2023-01-03T21:46:54.239Z,99909.41
2023-01-03T21:49:21.497Z,99919.91
2023-01-03T21:51:48.761Z,99914.72
2023-01-03T21:54:15.746Z,99923.44
2023-01-03T21:56:46.969Z,99921.72
2023-01-03T21:59:15.998Z,99918.28
2023-01-03T22:02:06.061Z,99935.75
2023-01-03T22:04:33.908Z,99936.66
2023-01-03T22:07:01.760Z,99945.38
2023-01-03T22:09:49.236Z,99945.41
2023-01-03T22:12:17.252Z,99944.56
2023-01-03T22:14:45.256Z,99944.56
2023-01-03T22:17:12.644Z,99947.16
2023-01-03T22:19:39.557Z,99942.75
2023-01-03T22:22:06.720Z,99949.72
2023-01-03T22:24:33.564Z,99948.81
2023-01-03T22:27:00.687Z,99946.19
2023-01-03T22:29:27.577Z,99949.66
2023-01-03T22:31:54.899Z,99954.00
2023-01-03T22:34:22.040Z,99956.56
2023-01-03T22:36:49.254Z,99957.50
2023-01-03T22:39:16.107Z,99951.41
2023-01-03T22:41:43.282Z,99947.06
2023-01-03T22:44:11.012Z,99950.59
2023-01-03T22:46:39.209Z,99955.78
2023-01-03T22:49:06.198Z,99954.94
2023-01-03T22:51:33.537Z,99954.97
2023-01-03T22:54:00.567Z,99963.69
2023-01-03T22:56:27.872Z,99964.59
2023-01-03T22:58:54.796Z,99967.22
2023-01-03T23:01:28.019Z,99963.72
2023-01-03T23:04:00.332Z,99960.28
2023-01-03T23:06:29.444Z,99976.84
2023-01-03T23:08:57.181Z,99971.59
2023-01-03T23:11:45.113Z,99980.28
2023-01-03T23:14:23.245Z,99975.94
2023-01-03T23:16:51.937Z,99979.41
2023-01-03T23:19:21.789Z,99987.22
2023-01-03T23:21:49.445Z,99982.03
2023-01-03T23:24:19.652Z,99982.00
2023-01-03T23:26:46.915Z,99985.47
2023-01-03T23:29:16.608Z,99986.34
2023-01-03T23:31:44.506Z,99988.06
2023-01-03T23:34:12.450Z,99983.72
2023-01-03T23:36:43.117Z,99989.81
2023-01-03T23:39:16.334Z,99980.22
2023-01-03T23:41:44.372Z,99985.44
2023-01-03T23:44:11.356Z,99987.19
2023-01-03T23:46:38.728Z,99988.94
2023-01-03T23:49:05.958Z,99981.09
2023-01-03T23:51:32.994Z,99985.44
2023-01-03T23:54:00.245Z,99985.47
2023-01-03T23:56:27.209Z,99982.00
2023-01-03T23:58:54.457Z,99982.03
